Terminal Aerodrome Forecast
Issued by NWS Blacksburg, VA

Home | Current Version | Previous Version | Text Only | Print | Product List | Glossary On
Versions: 1 2 3 4 5 6 7 8 9 10 11 12 13 14 15 16 17 18 19
000
FTUS41 KRNK 171127
TAFDAN
TAF
KDAN 171127Z 1712/1812 20004KT P6SM BKN018
      TEMPO 1712/1713 OVC008
     FM171300 21004KT P6SM OVC008
     FM171500 21004KT 6SM -RA BR OVC008
     FM171800 21008KT P6SM VCSH OVC035
     FM180200 22008KT P6SM OVC020
     FM181100 28006KT P6SM BKN015=

USA.gov is the U.S. government's official web portal to all federal, state and local government web resources and services.